Time;durP1;ratioP1;P1;durP2;ratioP2;P2;SDS_P1;SDS_P2;PMS_P1;PMS_P2;Temp;Humidity;BMP_temperature;BMP_pressure;BME280_temperature;BME280_humidity;BME280_pressure;Samples;Min_cycle;Max_cycle;Signal;HPM_P1;HPM_P2
2022/05/22 00:00:14;;;;;;;0.10;0.10;;;;;;;23.11;48.17;101493.19;5139891;27;20560;-35
2022/05/22 00:02:41;;;;;;;0.10;0.10;;;;;;;23.10;48.12;101497.91;5138506;27;20133;-34
2022/05/22 00:05:09;;;;;;;0.10;0.10;;;;;;;23.10;48.19;101500.69;5146512;27;20038;-35
2022/05/22 00:07:35;;;;;;;0.10;0.10;;;;;;;23.10;48.20;101497.06;5137416;27;20129;-32
2022/05/22 00:10:02;;;;;;;0.10;0.10;;;;;;;23.09;48.26;101499.03;5142608;27;20046;-33
2022/05/22 00:12:27;;;;;;;0.00;0.00;;;;;;;23.10;48.04;101497.91;5137240;27;20483;-31
2022/05/22 00:14:53;;;;;;;0.10;0.10;;;;;;;23.10;48.31;101497.91;5139686;27;20057;-32
2022/05/22 00:17:19;;;;;;;0.10;0.10;;;;;;;23.10;48.15;101503.47;5136457;27;20375;-31
2022/05/22 00:19:44;;;;;;;0.10;0.10;;;;;;;23.10;48.16;101508.19;5143083;27;20057;-31
2022/05/22 00:22:10;;;;;;;0.10;0.10;;;;;;;23.10;48.12;101511.81;5140623;27;20075;-32
2022/05/22 00:24:36;;;;;;;0.10;0.10;;;;;;;23.10;48.25;101508.19;5142537;27;20051;-33
2022/05/22 00:27:03;;;;;;;0.10;0.10;;;;;;;23.09;48.12;101496.25;5140276;27;20092;-30
2022/05/22 00:29:29;;;;;;;0.10;0.10;;;;;;;23.09;48.12;101479.56;5144615;27;20054;-32
2022/05/22 00:31:55;;;;;;;0.10;0.10;;;;;;;23.09;48.19;101479.56;5139716;27;20477;-31
2022/05/22 00:34:21;;;;;;;0.10;0.10;;;;;;;23.09;47.99;101474.00;5138604;27;20042;-32
2022/05/22 00:36:46;;;;;;;0.10;0.10;;;;;;;23.10;48.09;101463.72;5139200;27;20054;-31
2022/05/22 00:39:12;;;;;;;0.10;0.10;;;;;;;23.09;48.09;101467.63;5136589;27;20045;-31
2022/05/22 00:41:38;;;;;;;0.10;0.10;;;;;;;23.09;48.15;101462.09;5138298;27;20050;-31
2022/05/22 00:44:05;;;;;;;0.10;0.10;;;;;;;23.08;48.18;101464.03;5137195;27;20070;-32
2022/05/22 00:46:32;;;;;;;0.10;0.10;;;;;;;23.08;48.16;101466.00;5135995;27;21317;-30
2022/05/22 00:49:04;;;;;;;0.10;0.10;;;;;;;23.08;48.10;101466.81;5137052;27;20500;-32
2022/05/22 00:51:35;;;;;;;0.10;0.10;;;;;;;23.08;48.08;101468.75;5119600;27;20127;-31
2022/05/22 00:54:06;;;;;;;0.10;0.10;;;;;;;23.08;48.12;101475.16;5140876;27;20433;-31
2022/05/22 00:56:36;;;;;;;0.15;0.15;;;;;;;23.08;48.22;101475.16;5140068;27;20464;-31
2022/05/22 00:59:09;;;;;;;0.10;0.10;;;;;;;23.08;48.20;101474.31;5135752;27;20078;-32
2022/05/22 01:01:35;;;;;;;0.10;0.10;;;;;;;23.07;48.08;101473.50;5137758;27;20444;-32
2022/05/22 01:04:04;;;;;;;0.10;0.10;;;;;;;23.08;48.02;101472.38;5119039;27;20082;-32
2022/05/22 01:06:30;;;;;;;0.10;0.10;;;;;;;23.08;48.17;101466.81;5135802;27;20073;-33
2022/05/22 01:08:55;;;;;;;0.10;0.10;;;;;;;23.09;48.41;101473.19;5140802;27;20043;-30
2022/05/22 01:11:24;;;;;;;0.10;0.10;;;;;;;23.08;48.17;101468.75;5143370;27;20470;-31
2022/05/22 01:13:53;;;;;;;0.10;0.10;;;;;;;23.08;48.16;101471.53;5134751;27;20178;-30
2022/05/22 01:16:19;;;;;;;0.10;0.10;;;;;;;23.07;48.15;101473.50;5134879;27;20100;-31
2022/05/22 01:18:48;;;;;;;0.10;0.10;;;;;;;23.07;48.06;101461.56;5140196;27;20047;-32
2022/05/22 01:21:17;;;;;;;0.10;0.10;;;;;;;23.08;48.05;101466.00;5118859;27;20100;-31
2022/05/22 01:23:43;;;;;;;0.10;0.10;;;;;;;23.07;48.09;101470.72;5142071;27;20107;-31
2022/05/22 01:26:09;;;;;;;0.10;0.10;;;;;;;23.07;48.04;101464.34;5125300;27;20078;-31
2022/05/22 01:28:34;;;;;;;0.10;0.10;;;;;;;23.06;48.17;101460.75;5140411;27;20049;-32
2022/05/22 01:31:00;;;;;;;0.10;0.10;;;;;;;23.07;48.01;101458.78;5138868;27;20122;-31
2022/05/22 01:33:27;;;;;;;0.10;0.10;;;;;;;23.08;48.19;101460.44;5138766;27;20043;-32
2022/05/22 01:35:52;;;;;;;0.10;0.10;;;;;;;23.07;47.98;101458.78;5120109;27;20085;-32
2022/05/22 01:38:18;;;;;;;0.10;0.10;;;;;;;23.06;48.11;101448.78;5115578;27;20043;-31
2022/05/22 01:40:44;;;;;;;0.10;0.10;;;;;;;23.07;48.23;101458.78;5140109;27;20401;-32
2022/05/22 01:43:09;;;;;;;0.10;0.10;;;;;;;23.06;48.14;101459.88;5136634;27;20042;-31
2022/05/22 01:45:36;;;;;;;0.10;0.10;;;;;;;23.06;48.12;101469.06;5136013;27;20039;-31
2022/05/22 01:48:01;;;;;;;0.10;0.10;;;;;;;23.05;48.00;101470.16;5135849;27;20065;-31
2022/05/22 01:50:27;;;;;;;0.10;0.10;;;;;;;23.06;48.08;101459.88;5137517;27;20047;-32
2022/05/22 01:52:53;;;;;;;0.10;0.10;;;;;;;23.07;48.08;101464.34;5139583;27;20038;-32
2022/05/22 01:55:19;;;;;;;0.10;0.10;;;;;;;23.06;48.02;101449.63;5139163;27;20122;-32
2022/05/22 01:57:45;;;;;;;0.10;0.10;;;;;;;23.05;48.04;101450.72;5133511;27;20058;-31
2022/05/22 02:00:15;;;;;;;0.10;0.10;;;;;;;23.04;48.16;101449.91;5118516;27;20131;-31
2022/05/22 02:02:41;;;;;;;0.10;0.10;;;;;;;23.05;48.10;101450.72;5135244;27;20491;-29
2022/05/22 02:05:07;;;;;;;0.10;0.10;;;;;;;23.05;48.14;101447.94;5123288;27;20058;-30
2022/05/22 02:10:19;;;;;;;0.10;0.10;;;;;;;23.05;48.04;101442.38;5127632;27;20149;-32
2022/05/22 02:12:44;;;;;;;0.10;0.10;;;;;;;23.06;48.04;101454.31;5147642;27;20071;-35
2022/05/22 02:15:10;;;;;;;0.10;0.10;;;;;;;23.03;48.11;101459.38;5137286;27;20054;-32
2022/05/22 02:17:36;;;;;;;0.10;0.10;;;;;;;23.06;48.01;101451.53;5140098;27;20087;-31
2022/05/22 02:20:03;;;;;;;0.10;0.10;;;;;;;23.03;47.96;101437.13;5122400;27;20096;-32
2022/05/22 02:22:29;;;;;;;0.10;0.10;;;;;;;23.03;48.01;101427.97;5138798;27;20082;-33
2022/05/22 02:24:55;;;;;;;0.10;0.10;;;;;;;23.04;48.12;101419.34;5140938;27;20051;-31
2022/05/22 02:27:20;;;;;;;0.10;0.10;;;;;;;23.04;48.00;101416.56;5142637;27;20046;-32
2022/05/22 02:29:46;;;;;;;0.10;0.10;;;;;;;23.04;48.20;101404.63;5137500;27;20055;-32
2022/05/22 02:32:12;;;;;;;0.10;0.10;;;;;;;23.03;48.09;101400.19;5142905;27;20051;-32
2022/05/22 02:34:38;;;;;;;0.10;0.10;;;;;;;23.03;48.16;101395.47;5140643;27;21256;-31
2022/05/22 02:37:04;;;;;;;0.00;0.00;;;;;;;23.03;48.11;101398.25;5139820;27;20082;-31
2022/05/22 02:39:30;;;;;;;0.10;0.10;;;;;;;23.03;48.07;101401.03;5142213;27;20046;-31
2022/05/22 02:42:11;;;;;;;0.10;0.10;;;;;;;23.03;47.98;101392.69;5140370;27;20058;-31
2022/05/22 02:44:36;;;;;;;0.10;0.10;;;;;;;23.02;48.00;101399.38;5136487;27;20078;-32
2022/05/22 02:47:02;;;;;;;0.10;0.10;;;;;;;23.02;48.12;101399.38;5138012;27;20084;-31
2022/05/22 02:49:28;;;;;;;0.10;0.10;;;;;;;23.02;48.06;101393.81;5139561;27;20035;-33
2022/05/22 02:51:53;;;;;;;0.00;0.00;;;;;;;23.02;48.10;101402.16;5136225;27;20451;-31
2022/05/22 02:54:21;;;;;;;0.10;0.10;;;;;;;23.03;47.93;101400.19;5142603;27;20039;-32
2022/05/22 02:56:46;;;;;;;0.10;0.10;;;;;;;23.03;48.04;101400.19;5139480;27;21239;-32
2022/05/22 02:59:12;;;;;;;0.10;0.10;;;;;;;23.03;48.04;101402.97;5146055;27;20053;-30
2022/05/22 03:01:38;;;;;;;0.10;0.10;;;;;;;23.03;47.93;101391.88;5140399;27;20046;-31
2022/05/22 03:04:04;;;;;;;0.10;0.10;;;;;;;23.02;47.96;101396.59;5141756;27;20107;-33
2022/05/22 03:06:45;;;;;;;0.10;0.10;;;;;;;23.02;48.08;101390.22;5137107;27;20134;-31
2022/05/22 03:09:14;;;;;;;0.10;0.10;;;;;;;23.02;48.07;101390.22;5141382;27;20142;-31
2022/05/22 03:11:40;;;;;;;0.10;0.10;;;;;;;23.01;47.97;101386.63;5139131;27;20075;-31
2022/05/22 03:14:07;;;;;;;0.10;0.10;;;;;;;23.01;48.16;101381.06;5122967;27;20423;-32
2022/05/22 03:16:33;;;;;;;0.10;0.10;;;;;;;23.02;47.98;101377.16;5105747;27;20085;-31
2022/05/22 03:18:59;;;;;;;0.10;0.10;;;;;;;23.02;48.00;101376.34;5116928;27;20501;-32
2022/05/22 03:21:28;;;;;;;0.10;0.10;;;;;;;23.01;47.97;101383.84;5141057;27;20081;-31
2022/05/22 03:23:54;;;;;;;0.10;0.10;;;;;;;23.02;48.00;101384.66;5138679;27;20066;-31
2022/05/22 03:26:20;;;;;;;0.10;0.10;;;;;;;23.01;47.98;101383.00;5137825;27;20034;-32
2022/05/22 03:28:45;;;;;;;0.10;0.10;;;;;;;23.01;48.02;101385.75;5136390;27;20046;-31
2022/05/22 03:31:11;;;;;;;0.10;0.10;;;;;;;23.01;47.97;101381.06;5138754;27;20046;-32
2022/05/22 03:33:37;;;;;;;0.10;0.10;;;;;;;23.01;48.01;101380.22;5142440;27;20042;-32
2022/05/22 03:36:05;;;;;;;0.10;0.10;;;;;;;23.01;47.97;101372.72;5140644;27;20448;-30
2022/05/22 03:38:31;;;;;;;0.00;0.00;;;;;;;23.00;48.04;101368.28;5134847;27;20119;-31
2022/05/22 03:40:58;;;;;;;0.10;0.10;;;;;;;22.99;48.04;101361.06;5120535;27;20129;-31
2022/05/22 03:43:23;;;;;;;0.10;0.10;;;;;;;23.01;48.02;101369.94;5134980;27;20046;-31
2022/05/22 03:45:50;;;;;;;0.10;0.10;;;;;;;22.99;48.01;101360.25;5118876;27;20082;-32
2022/05/22 03:48:16;;;;;;;0.10;0.10;;;;;;;23.00;47.98;101362.72;5136329;27;20187;-31
2022/05/22 03:50:42;;;;;;;0.10;0.10;;;;;;;23.00;47.93;101361.91;5143427;27;20499;-32
2022/05/22 03:53:08;;;;;;;0.10;0.10;;;;;;;22.99;47.86;101361.06;5137831;27;20051;-31
2022/05/22 03:55:33;;;;;;;0.10;0.10;;;;;;;22.99;47.96;101357.47;5114761;27;20043;-31
2022/05/22 03:57:59;;;;;;;0.10;0.10;;;;;;;22.99;48.01;101352.75;5137678;27;20050;-31
2022/05/22 04:00:25;;;;;;;0.10;0.10;;;;;;;22.98;48.09;101345.53;5138551;27;20412;-31
2022/05/22 04:02:51;;;;;;;0.10;0.10;;;;;;;22.99;48.01;101355.53;5122166;28;20141;-31
2022/05/22 04:05:17;;;;;;;0.10;0.10;;;;;;;22.99;48.00;101351.91;5144906;27;20047;-31
2022/05/22 04:07:45;;;;;;;0.10;0.10;;;;;;;22.99;47.91;101351.91;5139650;27;20104;-31
2022/05/22 04:10:12;;;;;;;0.10;0.10;;;;;;;22.99;47.89;101351.91;5138124;27;20082;-33
2022/05/22 04:12:38;;;;;;;0.00;0.00;;;;;;;22.99;47.99;101357.47;5124938;27;20051;-31
2022/05/22 04:15:06;;;;;;;0.10;0.10;;;;;;;22.99;47.97;101354.69;5141850;27;20070;-31
2022/05/22 04:17:32;;;;;;;0.00;0.00;;;;;;;22.98;47.86;101348.31;5137697;27;20078;-31
2022/05/22 04:19:58;;;;;;;0.10;0.10;;;;;;;22.99;47.95;101352.75;5133158;27;20047;-31
2022/05/22 04:22:23;;;;;;;0.10;0.10;;;;;;;22.98;47.97;101353.88;5144265;27;20442;-31
2022/05/22 04:25:21;;;;;;;0.10;0.10;;;;;;;22.98;48.00;101353.88;5135817;27;20099;-31
2022/05/22 04:27:39;;;;;;;0.10;0.10;;;;;;;22.97;47.96;101352.22;5123996;27;20481;-31
2022/05/22 04:30:07;;;;;;;0.10;0.10;;;;;;;22.97;47.93;101338.34;5121553;27;20043;-31
2022/05/22 04:32:32;;;;;;;0.10;0.10;;;;;;;22.98;48.00;101351.09;5141110;27;20231;-32
2022/05/22 04:34:58;;;;;;;0.10;0.10;;;;;;;22.97;47.91;101346.66;5142043;27;20389;-31
2022/05/22 04:37:23;;;;;;;0.10;0.10;;;;;;;22.98;47.93;101344.72;5119957;27;20130;-32
2022/05/22 04:39:49;;;;;;;0.10;0.10;;;;;;;22.98;47.99;101351.09;5142459;27;20069;-31
2022/05/22 04:42:15;;;;;;;0.10;0.10;;;;;;;22.98;47.93;101341.94;5141446;27;20058;-31
2022/05/22 04:44:41;;;;;;;0.10;0.10;;;;;;;22.98;48.00;101353.06;5141156;27;20043;-31
2022/05/22 04:47:06;;;;;;;0.10;0.10;;;;;;;22.98;47.91;101350.28;5137418;27;20415;-31
2022/05/22 04:49:32;;;;;;;0.10;0.10;;;;;;;22.97;47.88;101354.16;5135636;27;20498;-31
2022/05/22 04:51:58;;;;;;;0.10;0.10;;;;;;;22.96;47.94;101356.09;5140594;27;20046;-32
2022/05/22 04:54:24;;;;;;;0.10;0.10;;;;;;;22.97;47.85;101351.38;5139197;27;20466;-31
2022/05/22 04:56:51;;;;;;;0.10;0.10;;;;;;;22.97;48.00;101356.94;5140770;27;20047;-33
2022/05/22 04:59:17;;;;;;;0.10;0.10;;;;;;;22.96;47.89;101358.88;5135140;27;20080;-30
2022/05/22 05:01:42;;;;;;;0.10;0.10;;;;;;;22.96;47.86;101358.88;5141161;27;20077;-30
2022/05/22 05:04:08;;;;;;;0.10;0.10;;;;;;;22.96;47.82;101356.09;5137523;27;20178;-31
2022/05/22 05:06:34;;;;;;;0.10;0.10;;;;;;;22.97;47.86;101359.69;5129442;28;20043;-31
2022/05/22 05:09:00;;;;;;;0.10;0.10;;;;;;;22.95;47.86;101360.00;5128554;28;20068;-31
2022/05/22 05:11:26;;;;;;;0.10;0.10;;;;;;;22.96;47.69;101358.88;5141034;27;20085;-31
2022/05/22 05:13:51;;;;;;;0.10;0.10;;;;;;;22.96;47.89;101355.28;5142270;27;20471;-31
2022/05/22 05:16:17;;;;;;;0.10;0.10;;;;;;;22.95;48.18;101357.22;5138272;27;20121;-31
2022/05/22 05:18:43;;;;;;;0.10;0.10;;;;;;;22.96;47.89;101358.06;5138661;27;20120;-31
2022/05/22 05:21:11;;;;;;;0.10;0.10;;;;;;;22.95;48.04;101353.63;5137156;27;20047;-31
2022/05/22 05:23:37;;;;;;;0.10;0.10;;;;;;;22.95;48.08;101346.13;5141451;27;20125;-32
2022/05/22 05:26:03;;;;;;;0.10;0.10;;;;;;;22.95;48.05;101346.13;5120885;27;20512;-32
2022/05/22 05:28:30;;;;;;;0.10;0.10;;;;;;;22.95;47.89;101340.56;5134051;27;20130;-33
2022/05/22 05:30:56;;;;;;;0.10;0.10;;;;;;;22.96;47.81;101346.94;5123222;27;20090;-32
2022/05/22 05:33:22;;;;;;;0.10;0.10;;;;;;;22.94;47.99;101347.25;5141931;27;20177;-32
2022/05/22 05:35:47;;;;;;;0.10;0.10;;;;;;;22.96;47.95;101342.22;5143089;27;20366;-31
2022/05/22 05:38:13;;;;;;;0.10;0.10;;;;;;;22.96;47.93;101352.50;5135698;27;20050;-31
2022/05/22 05:40:39;;;;;;;0.10;0.10;;;;;;;22.95;47.92;101348.91;5141718;27;20047;-31
2022/05/22 05:43:05;;;;;;;0.10;0.10;;;;;;;22.94;47.95;101347.25;5142492;27;20071;-31
2022/05/22 05:45:31;;;;;;;0.10;0.10;;;;;;;22.94;47.98;101338.91;5141611;27;20534;-31
2022/05/22 05:47:57;;;;;;;0.10;0.10;;;;;;;22.94;47.84;101338.09;5138621;27;20034;-31
2022/05/22 05:50:25;;;;;;;0.10;0.10;;;;;;;22.95;47.74;101342.53;5143864;27;20042;-32
2022/05/22 05:52:59;;;;;;;0.10;0.10;;;;;;;22.95;47.92;101342.53;5136255;27;20088;-31
2022/05/22 05:55:25;;;;;;;0.10;0.10;;;;;;;22.94;47.82;101347.25;5139538;27;20127;-32
2022/05/22 05:58:11;;;;;;;0.10;0.10;;;;;;;22.94;47.89;101336.16;5123000;27;20055;-32
2022/05/22 06:00:57;;;;;;;0.10;0.10;;;;;;;22.94;47.99;101340.88;5125426;27;20484;-31
2022/05/22 06:03:22;;;;;;;0.10;0.10;;;;;;;22.93;47.91;101340.06;5139167;27;20050;-31
2022/05/22 06:05:48;;;;;;;0.10;0.10;;;;;;;22.94;47.91;101341.69;5137737;27;20039;-32
2022/05/22 06:08:14;;;;;;;0.10;0.10;;;;;;;22.93;47.96;101336.44;5140384;27;20042;-32
2022/05/22 06:10:40;;;;;;;0.10;0.10;;;;;;;22.93;47.87;101342.00;5138395;27;20062;-31
2022/05/22 06:13:08;;;;;;;0.10;0.10;;;;;;;22.94;47.89;101335.31;5141547;27;20393;-31
2022/05/22 06:15:34;;;;;;;0.00;0.00;;;;;;;22.94;48.02;101338.91;5143878;27;20477;-31
2022/05/22 06:18:00;;;;;;;0.10;0.10;;;;;;;22.94;47.74;101332.53;5118257;27;20043;-31
2022/05/22 06:20:26;;;;;;;0.10;0.10;;;;;;;22.93;47.93;101339.22;5141585;27;20064;-31
2022/05/22 06:22:51;;;;;;;0.10;0.10;;;;;;;22.92;47.93;101335.59;5139297;27;20069;-31
2022/05/22 06:25:17;;;;;;;0.05;0.05;;;;;;;22.92;48.08;101337.56;5144424;27;20045;-31
2022/05/22 06:27:43;;;;;;;0.10;0.10;;;;;;;22.92;47.93;101343.09;5140537;27;20490;-31
2022/05/22 06:30:12;;;;;;;0.20;0.20;;;;;;;22.92;47.95;101341.16;5118409;27;20067;-31
2022/05/22 06:32:39;;;;;;;0.00;0.00;;;;;;;22.93;47.89;101348.38;5139636;27;20045;-31
2022/05/22 06:35:08;;;;;;;0.00;0.00;;;;;;;22.94;48.08;101349.22;5139446;27;20117;-31
2022/05/22 06:37:33;;;;;;;0.00;0.00;;;;;;;22.92;47.92;101343.94;5142176;27;20451;-30
2022/05/22 06:40:04;;;;;;;0.10;0.10;;;;;;;22.92;47.80;101343.94;5137877;27;20067;-31
2022/05/22 06:42:34;;;;;;;0.00;0.00;;;;;;;22.92;47.97;101343.94;5140668;27;20123;-33
2022/05/22 06:45:13;;;;;;;0.08;0.08;;;;;;;22.92;47.90;101349.47;5140393;27;20067;-32
2022/05/22 06:47:40;;;;;;;0.00;0.00;;;;;;;22.92;47.90;101343.09;5120271;27;20557;-32
2022/05/22 06:50:10;;;;;;;0.10;0.10;;;;;;;22.93;47.95;101344.78;5143782;27;21276;-32
2022/05/22 06:52:36;;;;;;;0.10;0.10;;;;;;;22.93;47.99;101342.00;5123290;27;20133;-32
2022/05/22 06:55:03;;;;;;;0.10;0.10;;;;;;;22.92;47.81;101338.38;5140838;27;20043;-31
2022/05/22 06:57:29;;;;;;;0.10;0.10;;;;;;;22.92;47.88;101338.38;5124809;27;20092;-29
2022/05/22 06:59:57;;;;;;;0.20;0.20;;;;;;;22.92;47.89;101332.81;5141542;27;20043;-33
2022/05/22 07:02:24;;;;;;;0.10;0.10;;;;;;;22.92;47.96;101345.88;5124641;27;20381;-31
2022/05/22 07:04:51;;;;;;;0.00;0.00;;;;;;;22.92;47.86;101340.34;5139809;27;20457;-32
2022/05/22 07:07:16;;;;;;;0.10;0.10;;;;;;;22.91;47.89;101333.13;5145817;27;20134;-33
2022/05/22 07:09:42;;;;;;;0.10;0.10;;;;;;;22.92;47.97;101337.56;5141594;27;20362;-29
2022/05/22 07:12:10;;;;;;;0.10;0.10;;;;;;;22.92;47.89;101329.22;5124124;27;20050;-34
2022/05/22 07:14:36;;;;;;;0.10;0.10;;;;;;;22.92;47.89;101332.81;5123449;27;20130;-34
2022/05/22 07:17:03;;;;;;;0.00;0.00;;;;;;;22.91;47.91;101333.94;5142102;27;20070;-33
2022/05/22 07:19:29;;;;;;;0.00;0.00;;;;;;;22.92;47.92;101334.78;5137775;27;20046;-31
2022/05/22 07:21:54;;;;;;;0.00;0.00;;;;;;;22.92;47.82;101326.44;5139616;27;20448;-32
2022/05/22 07:24:20;;;;;;;0.10;0.10;;;;;;;22.92;47.85;101329.22;5139179;27;20385;-31
2022/05/22 07:26:46;;;;;;;0.03;0.03;;;;;;;22.92;47.91;101332.00;5139967;27;20050;-32
2022/05/22 07:29:11;;;;;;;0.10;0.10;;;;;;;22.91;47.92;101331.19;5139101;27;20114;-31
2022/05/22 07:31:39;;;;;;;0.10;0.10;;;;;;;22.90;47.82;101332.31;5141721;27;20043;-33
2022/05/22 07:34:05;;;;;;;0.10;0.10;;;;;;;22.90;48.00;101320.38;5139950;27;20038;-31
2022/05/22 07:36:31;;;;;;;0.10;0.10;;;;;;;22.92;47.82;101329.22;5143124;27;20062;-32
2022/05/22 07:38:57;;;;;;;0.10;0.10;;;;;;;22.91;47.93;101324.78;5127010;27;20038;-32
2022/05/22 07:41:22;;;;;;;0.10;0.10;;;;;;;22.90;47.79;101328.69;5137026;27;20062;-31
2022/05/22 07:43:48;;;;;;;0.10;0.10;;;;;;;22.92;47.77;101318.09;5141714;27;20054;-32
2022/05/22 07:46:14;;;;;;;0.10;0.10;;;;;;;22.91;47.86;101328.41;5140512;27;20086;-31
2022/05/22 07:48:41;;;;;;;0.08;0.08;;;;;;;22.91;47.81;101325.63;5140981;27;20055;-32
2022/05/22 07:51:08;;;;;;;0.10;0.10;;;;;;;22.90;47.77;101329.53;5140346;27;20125;-30
2022/05/22 07:53:34;;;;;;;0.00;0.00;;;;;;;22.90;47.95;101320.38;5119002;27;20316;-33
2022/05/22 07:56:01;;;;;;;0.10;0.10;;;;;;;22.91;47.88;101319.25;5146256;27;20035;-33
2022/05/22 07:58:28;;;;;;;0.10;0.10;;;;;;;22.90;47.98;101323.97;5143846;27;20066;-31
2022/05/22 08:00:55;;;;;;;0.10;0.10;;;;;;;22.91;47.82;101333.94;5122806;27;20078;-31
2022/05/22 08:03:22;;;;;;;0.10;0.10;;;;;;;22.91;47.99;101328.41;5126505;27;20058;-33
2022/05/22 08:05:47;;;;;;;0.10;0.10;;;;;;;22.91;47.84;101331.19;5123119;27;20104;-31
2022/05/22 08:08:14;;;;;;;0.10;0.10;;;;;;;22.90;47.94;101317.59;5122512;27;20043;-31
2022/05/22 08:10:41;;;;;;;0.10;0.10;;;;;;;22.91;47.77;101313.69;5139005;27;20547;-32
2022/05/22 08:13:08;;;;;;;0.10;0.10;;;;;;;22.89;47.84;101313.97;5141682;27;20074;-32
2022/05/22 08:15:36;;;;;;;0.10;0.10;;;;;;;22.91;47.82;101310.91;5138359;27;20067;-32
2022/05/22 08:18:03;;;;;;;0.10;0.10;;;;;;;22.90;47.96;101301.75;5141937;27;20088;-32
2022/05/22 08:20:31;;;;;;;0.10;0.10;;;;;;;22.90;47.90;101290.66;5135408;27;20071;-31
2022/05/22 08:22:59;;;;;;;0.10;0.10;;;;;;;22.90;47.79;101295.38;5101862;27;20517;-32
2022/05/22 08:25:26;;;;;;;0.00;0.00;;;;;;;22.89;47.85;101283.41;5141029;27;20079;-31
2022/05/22 08:27:52;;;;;;;0.10;0.10;;;;;;;22.87;47.92;101277.31;5138194;27;20075;-31
2022/05/22 08:30:19;;;;;;;0.10;0.10;;;;;;;22.89;47.94;101280.63;5139028;27;20085;-31
2022/05/22 08:32:46;;;;;;;0.00;0.00;;;;;;;22.90;47.79;101282.31;5119024;27;20094;-32
2022/05/22 08:35:15;;;;;;;0.00;0.00;;;;;;;22.90;47.84;101273.16;5141231;27;20074;-31
2022/05/22 08:37:42;;;;;;;0.10;0.10;;;;;;;22.90;47.69;101278.72;5136243;27;20070;-31
2022/05/22 08:40:09;;;;;;;0.00;0.00;;;;;;;22.89;47.83;101275.09;5141846;27;20088;-31
2022/05/22 08:42:41;;;;;;;0.10;0.10;;;;;;;22.87;47.92;101271.75;5142315;27;20154;-31
2022/05/22 08:45:26;;;;;;;0.10;0.10;;;;;;;22.90;47.79;101273.16;5138933;27;20476;-31
2022/05/22 08:50:45;;;;;;;0.10;0.10;;;;;;;22.88;47.87;101259.53;5172466;27;20221;-29
2022/05/22 08:53:33;;;;;;;0.10;0.10;;;;;;;22.89;47.84;101257.59;5141144;27;20077;-30
2022/05/22 08:59:01;;;;;;;0.10;0.10;;;;;;;22.86;47.87;101253.44;5139098;27;19968;-29
2022/05/22 09:07:09;;;;;;;0.10;0.10;;;;;;;22.88;47.83;101228.16;5178310;27;20209;-31
2022/05/22 09:09:37;;;;;;;0.10;0.10;;;;;;;22.88;47.83;101234.53;5155716;27;20074;-29
2022/05/22 09:12:08;;;;;;;;;;;;;;;22.87;47.79;101227.31;5148674;27;20079;-31
2022/05/22 09:14:47;;;;;;;0.10;0.10;;;;;;;22.87;47.97;101218.19;5152435;27;20010;-29
2022/05/22 09:17:18;;;;;;;0.10;0.10;;;;;;;22.87;48.01;101220.94;5150510;27;20097;-31
2022/05/22 09:22:37;;;;;;;0.10;0.10;;;;;;;22.87;47.83;101219.00;5169076;27;20217;-30
2022/05/22 09:25:25;;;;;;;0.10;0.10;;;;;;;22.87;47.80;101221.78;5168097;27;20102;-30
2022/05/22 09:28:24;;;;;;;0.00;0.00;;;;;;;22.88;47.88;101219.81;5167553;27;20125;-29
2022/05/22 09:31:14;;;;;;;0.10;0.10;;;;;;;22.87;47.91;101219.00;5152824;27;20039;-29
2022/05/22 09:33:48;;;;;;;0.10;0.10;;;;;;;22.88;47.75;101208.72;5166674;27;20045;-29
2022/05/22 09:36:38;;;;;;;0.10;0.10;;;;;;;22.86;47.88;101203.47;5150074;27;20066;-29
2022/05/22 09:39:44;;;;;;;0.10;0.10;;;;;;;22.87;47.93;101202.34;5135587;27;20404;-30
2022/05/22 09:42:38;;;;;;;0.10;0.10;;;;;;;22.87;47.87;101207.06;5160223;27;20130;-31
2022/05/22 09:45:44;;;;;;;0.10;0.10;;;;;;;22.86;47.87;101205.41;5145112;27;20136;-33
2022/05/22 09:48:36;;;;;;;0.10;0.10;;;;;;;22.87;47.97;101210.66;5139172;27;20077;-30
2022/05/22 09:54:14;;;;;;;0.10;0.10;;;;;;;22.91;47.81;101199.81;5158833;27;20783;-29
2022/05/22 09:57:28;;;;;;;0.00;0.00;;;;;;;22.91;47.84;101195.09;5130194;27;20043;-29
2022/05/22 10:03:13;;;;;;;0.10;0.10;;;;;;;22.89;47.78;101194.53;5178398;27;20161;-29
2022/05/22 10:06:09;;;;;;;0.10;0.10;;;;;;;22.89;47.93;101202.06;5145868;27;20058;-29
2022/05/22 10:08:52;;;;;;;0.10;0.10;;;;;;;22.87;47.85;101194.00;5147999;27;20043;-29
2022/05/22 10:11:57;;;;;;;0.10;0.10;;;;;;;22.87;47.81;101196.78;5148170;27;20070;-30
2022/05/22 10:15:18;;;;;;;0.10;0.10;;;;;;;22.88;47.85;101203.16;5132262;27;20074;-29
2022/05/22 10:18:24;;;;;;;0.10;0.10;;;;;;;22.87;47.95;101199.56;5123702;27;20129;-28
2022/05/22 10:21:25;;;;;;;0.10;0.10;;;;;;;22.88;47.90;101201.19;5133806;27;20067;-30
2022/05/22 10:24:21;;;;;;;0.10;0.10;;;;;;;22.87;47.89;101207.88;5138304;27;20085;-30
2022/05/22 10:27:19;;;;;;;0.10;0.10;;;;;;;22.89;48.08;101202.88;5137222;27;20085;-30
2022/05/22 10:29:56;;;;;;;0.10;0.10;;;;;;;22.88;47.76;101200.38;5136448;27;20086;-30
2022/05/22 10:32:29;;;;;;;0.10;0.10;;;;;;;22.87;47.84;101202.34;5150547;27;20067;-29
2022/05/22 10:35:05;;;;;;;0.10;0.10;;;;;;;22.87;47.95;101196.78;5147756;27;20081;-32
2022/05/22 10:37:54;;;;;;;0.10;0.10;;;;;;;22.87;47.85;101193.19;5152132;27;20072;-32
2022/05/22 10:40:23;;;;;;;0.10;0.10;;;;;;;22.88;47.94;101192.03;5133758;27;20071;-32
2022/05/22 10:42:52;;;;;;;0.10;0.10;;;;;;;22.89;47.75;101179.84;5133443;27;20066;-31
2022/05/22 10:45:32;;;;;;;0.10;0.10;;;;;;;22.86;47.62;101181.25;5149055;27;20046;-32
2022/05/22 10:48:10;;;;;;;0.10;0.10;;;;;;;22.87;47.92;101179.28;5117005;27;20078;-33
2022/05/22 10:50:36;;;;;;;0.10;0.10;;;;;;;22.87;47.91;101176.53;5153788;27;20366;-33
2022/05/22 10:53:03;;;;;;;0.10;0.10;;;;;;;22.88;47.96;101175.38;5157551;27;20066;-32
2022/05/22 10:58:18;;;;;;;0.10;0.10;;;;;;;22.87;47.81;101166.22;5179961;27;20210;-29
2022/05/22 11:01:03;;;;;;;0.10;0.10;;;;;;;22.89;47.86;101165.94;5167987;27;20082;-29
2022/05/22 11:03:31;;;;;;;0.10;0.10;;;;;;;22.87;47.89;101165.41;5146533;27;20585;-30
2022/05/22 11:05:59;;;;;;;0.10;0.10;;;;;;;22.87;47.86;101162.63;5166211;27;20054;-29
2022/05/22 11:08:28;;;;;;;0.10;0.10;;;;;;;22.88;47.91;101151.22;5147558;27;20034;-29
2022/05/22 11:10:55;;;;;;;0.10;0.10;;;;;;;22.87;47.85;101143.19;5167793;27;20085;-30
2022/05/22 11:13:24;;;;;;;0.10;0.10;;;;;;;22.87;47.77;101141.25;5167882;27;20038;-29
2022/05/22 11:15:49;;;;;;;0.10;0.10;;;;;;;22.86;47.93;101136.81;5166678;27;20078;-29
2022/05/22 11:18:22;;;;;;;0.10;0.10;;;;;;;22.87;47.88;101132.91;5164034;27;20458;-29
2022/05/22 11:20:53;;;;;;;0.10;0.10;;;;;;;22.87;47.83;101132.09;5165580;27;20075;-30
2022/05/22 11:23:42;;;;;;;0.10;0.10;;;;;;;22.87;47.81;101120.97;5167399;27;20146;-29
2022/05/22 11:26:25;;;;;;;0.10;0.10;;;;;;;22.87;47.91;101116.25;5152943;27;20134;-30
2022/05/22 11:29:02;;;;;;;0.05;0.05;;;;;;;22.88;47.86;101105.97;5166353;27;20433;-29
2022/05/22 11:32:08;;;;;;;0.10;0.10;;;;;;;22.88;47.74;101103.19;5167037;27;20377;-30
2022/05/22 11:34:48;;;;;;;0.10;0.10;;;;;;;22.88;47.81;101097.63;5150668;27;20104;-29
2022/05/22 11:42:35;;;;;;;0.10;0.10;;;;;;;22.87;47.76;101099.59;5179850;27;20209;-31
2022/05/22 11:45:11;;;;;;;0.10;0.10;;;;;;;22.88;47.80;101103.19;5165440;27;20801;-32
2022/05/22 11:48:01;;;;;;;0.10;0.10;;;;;;;22.88;47.84;101101.22;5166883;27;20519;-32
2022/05/22 11:50:37;;;;;;;0.10;0.10;;;;;;;22.87;47.72;101094.03;5151344;27;20107;-31
2022/05/22 11:53:45;;;;;;;0.10;0.10;;;;;;;22.88;47.79;101092.06;5166655;27;20370;-31
2022/05/22 11:56:23;;;;;;;0.10;0.10;;;;;;;22.87;47.91;101080.16;5140227;27;20508;-31
2022/05/22 11:59:15;;;;;;;0.00;0.00;;;;;;;22.87;47.83;101076.53;5167174;27;20077;-30
2022/05/22 12:02:06;;;;;;;0.10;0.10;;;;;;;22.87;47.68;101076.53;5153098;27;20073;-31
2022/05/22 12:04:45;;;;;;;0.00;0.00;;;;;;;22.88;47.87;101072.63;5151912;27;20070;-31
2022/05/22 12:07:44;;;;;;;0.10;0.10;;;;;;;22.87;47.77;101066.25;5166383;27;20125;-30
2022/05/22 12:10:30;;;;;;;0.10;0.10;;;;;;;22.87;47.76;101073.78;5155080;27;20098;-31